Shakespeare, Alabama
Current Conditions -  °F | °C
As of 7:58 AM on Tuesday 27 Jan 2015 (Local Time) from KMXF Reporting Station
Clear Clear  
Wind Chill: 38°   Ceiling: Unl
Heat Index: 38°   Visibility: 10mi
Dew Point: 34°   Wind: 3mph
Humidity: 83%   Direction: NA
Pressure: 30"   Gusts: NA
Location:  32.3665°N, 86.2999°W
Report Text: KMXF 271358Z AUTO VRB03KT 10SM CLR 04/01 A3000 RMK AO2 SLP163 T00360010
Loading
Personal Weather Stations






























Interactive Weather Map New forecast layout! Learn more

10-Day Weather Forecast

Advertisements
Track Severe Weather on mobile